sensor_id;sensor_type;location;lat;lon;timestamp;P1;durP1;ratioP1;P2;durP2;ratioP2
18188;SDS011;9219;50.396;8.546;2022-07-23T00:00:21;14.90;;;8.20;;
18188;SDS011;9219;50.396;8.546;2022-07-23T00:02:48;14.30;;;9.10;;
18188;SDS011;9219;50.396;8.546;2022-07-23T00:05:16;17.90;;;9.70;;
18188;SDS011;9219;50.396;8.546;2022-07-23T00:07:44;16.70;;;10.10;;
18188;SDS011;9219;50.396;8.546;2022-07-23T00:10:12;15.10;;;10.17;;
18188;SDS011;9219;50.396;8.546;2022-07-23T00:12:39;15.77;;;9.63;;
18188;SDS011;9219;50.396;8.546;2022-07-23T00:18:11;19.03;;;11.37;;
18188;SDS011;9219;50.396;8.546;2022-07-23T00:20:39;17.77;;;11.50;;
18188;SDS011;9219;50.396;8.546;2022-07-23T00:23:06;19.23;;;10.80;;
18188;SDS011;9219;50.396;8.546;2022-07-23T00:25:34;16.43;;;10.97;;
18188;SDS011;9219;50.396;8.546;2022-07-23T00:28:02;19.93;;;10.90;;
18188;SDS011;9219;50.396;8.546;2022-07-23T00:30:30;22.13;;;12.67;;
18188;SDS011;9219;50.396;8.546;2022-07-23T00:32:59;22.00;;;12.80;;
18188;SDS011;9219;50.396;8.546;2022-07-23T00:43:25;18.20;;;12.63;;
18188;SDS011;9219;50.396;8.546;2022-07-23T00:45:53;23.23;;;13.70;;
18188;SDS011;9219;50.396;8.546;2022-07-23T00:48:20;19.83;;;13.40;;
18188;SDS011;9219;50.396;8.546;2022-07-23T00:50:47;25.67;;;13.83;;
18188;SDS011;9219;50.396;8.546;2022-07-23T00:53:15;19.60;;;12.90;;
18188;SDS011;9219;50.396;8.546;2022-07-23T00:55:43;21.50;;;12.83;;
18188;SDS011;9219;50.396;8.546;2022-07-23T00:58:11;19.10;;;13.10;;
18188;SDS011;9219;50.396;8.546;2022-07-23T01:00:40;22.83;;;14.80;;
18188;SDS011;9219;50.396;8.546;2022-07-23T01:08:27;20.70;;;13.53;;
18188;SDS011;9219;50.396;8.546;2022-07-23T01:10:54;19.60;;;13.37;;
18188;SDS011;9219;50.396;8.546;2022-07-23T01:13:22;22.50;;;12.97;;
18188;SDS011;9219;50.396;8.546;2022-07-23T01:15:50;21.13;;;12.77;;
18188;SDS011;9219;50.396;8.546;2022-07-23T01:18:17;25.23;;;15.23;;
18188;SDS011;9219;50.396;8.546;2022-07-23T01:20:44;25.30;;;15.30;;
18188;SDS011;9219;50.396;8.546;2022-07-23T01:23:13;23.87;;;15.20;;
18188;SDS011;9219;50.396;8.546;2022-07-23T01:33:59;22.93;;;13.60;;
18188;SDS011;9219;50.396;8.546;2022-07-23T01:36:26;25.10;;;14.63;;
18188;SDS011;9219;50.396;8.546;2022-07-23T01:38:53;29.07;;;13.70;;
18188;SDS011;9219;50.396;8.546;2022-07-23T01:41:21;25.00;;;14.93;;
18188;SDS011;9219;50.396;8.546;2022-07-23T01:43:49;25.03;;;14.40;;
18188;SDS011;9219;50.396;8.546;2022-07-23T01:46:17;23.50;;;13.90;;
18188;SDS011;9219;50.396;8.546;2022-07-23T01:48:45;18.93;;;14.03;;
18188;SDS011;9219;50.396;8.546;2022-07-23T01:51:14;20.30;;;13.83;;
18188;SDS011;9219;50.396;8.546;2022-07-23T01:59:01;18.63;;;13.80;;
18188;SDS011;9219;50.396;8.546;2022-07-23T02:01:29;20.50;;;13.90;;
18188;SDS011;9219;50.396;8.546;2022-07-23T02:03:57;19.23;;;12.73;;
18188;SDS011;9219;50.396;8.546;2022-07-23T02:06:24;22.27;;;14.13;;
18188;SDS011;9219;50.396;8.546;2022-07-23T02:08:51;24.33;;;15.13;;
18188;SDS011;9219;50.396;8.546;2022-07-23T02:11:19;28.00;;;16.37;;
18188;SDS011;9219;50.396;8.546;2022-07-23T02:13:46;21.07;;;14.27;;
18188;SDS011;9219;50.396;8.546;2022-07-23T02:16:14;25.60;;;15.07;;
18188;SDS011;9219;50.396;8.546;2022-07-23T02:23:47;29.10;;;16.33;;
18188;SDS011;9219;50.396;8.546;2022-07-23T02:26:15;26.87;;;15.77;;
18188;SDS011;9219;50.396;8.546;2022-07-23T02:28:46;31.27;;;16.27;;
18188;SDS011;9219;50.396;8.546;2022-07-23T02:31:13;25.10;;;16.10;;
18188;SDS011;9219;50.396;8.546;2022-07-23T02:33:41;31.40;;;17.73;;
18188;SDS011;9219;50.396;8.546;2022-07-23T02:36:08;27.73;;;15.83;;
18188;SDS011;9219;50.396;8.546;2022-07-23T02:38:36;29.50;;;16.80;;
18188;SDS011;9219;50.396;8.546;2022-07-23T02:41:06;34.93;;;18.77;;
18188;SDS011;9219;50.396;8.546;2022-07-23T02:43:46;29.30;;;17.13;;
18188;SDS011;9219;50.396;8.546;2022-07-23T02:46:13;30.30;;;17.50;;
18188;SDS011;9219;50.396;8.546;2022-07-23T02:48:41;30.60;;;17.67;;
18188;SDS011;9219;50.396;8.546;2022-07-23T02:51:08;27.63;;;17.03;;
18188;SDS011;9219;50.396;8.546;2022-07-23T02:53:40;32.10;;;17.90;;
18188;SDS011;9219;50.396;8.546;2022-07-23T02:56:11;28.33;;;16.43;;
18188;SDS011;9219;50.396;8.546;2022-07-23T02:58:38;27.40;;;16.80;;
18188;SDS011;9219;50.396;8.546;2022-07-23T03:04:43;30.77;;;17.60;;
18188;SDS011;9219;50.396;8.546;2022-07-23T03:07:10;31.67;;;19.37;;
18188;SDS011;9219;50.396;8.546;2022-07-23T03:09:37;32.47;;;18.43;;
18188;SDS011;9219;50.396;8.546;2022-07-23T03:12:06;33.60;;;18.60;;
18188;SDS011;9219;50.396;8.546;2022-07-23T03:14:39;34.73;;;18.77;;
18188;SDS011;9219;50.396;8.546;2022-07-23T03:17:07;39.03;;;19.47;;
18188;SDS011;9219;50.396;8.546;2022-07-23T03:19:35;27.33;;;17.13;;
18188;SDS011;9219;50.396;8.546;2022-07-23T03:24:45;35.67;;;20.27;;
18188;SDS011;9219;50.396;8.546;2022-07-23T03:27:22;43.57;;;19.43;;
18188;SDS011;9219;50.396;8.546;2022-07-23T03:29:50;38.53;;;19.67;;
18188;SDS011;9219;50.396;8.546;2022-07-23T03:32:18;42.33;;;19.60;;
18188;SDS011;9219;50.396;8.546;2022-07-23T03:34:46;30.10;;;18.53;;
18188;SDS011;9219;50.396;8.546;2022-07-23T03:37:14;33.47;;;19.83;;
18188;SDS011;9219;50.396;8.546;2022-07-23T03:39:44;25.30;;;16.37;;
18188;SDS011;9219;50.396;8.546;2022-07-23T03:44:52;33.83;;;17.97;;
18188;SDS011;9219;50.396;8.546;2022-07-23T03:47:19;31.57;;;18.77;;
18188;SDS011;9219;50.396;8.546;2022-07-23T03:49:48;30.03;;;16.07;;
18188;SDS011;9219;50.396;8.546;2022-07-23T03:52:16;28.00;;;16.73;;
18188;SDS011;9219;50.396;8.546;2022-07-23T03:54:43;25.43;;;16.07;;
18188;SDS011;9219;50.396;8.546;2022-07-23T03:57:10;32.07;;;16.87;;
18188;SDS011;9219;50.396;8.546;2022-07-23T03:59:37;28.40;;;17.20;;
18188;SDS011;9219;50.396;8.546;2022-07-23T04:04:49;25.87;;;16.63;;
18188;SDS011;9219;50.396;8.546;2022-07-23T04:07:17;27.83;;;15.83;;
18188;SDS011;9219;50.396;8.546;2022-07-23T04:09:44;31.77;;;17.23;;
18188;SDS011;9219;50.396;8.546;2022-07-23T04:12:12;33.87;;;18.17;;
18188;SDS011;9219;50.396;8.546;2022-07-23T04:14:39;28.80;;;16.17;;
18188;SDS011;9219;50.396;8.546;2022-07-23T04:17:07;27.90;;;16.47;;
18188;SDS011;9219;50.396;8.546;2022-07-23T04:19:34;31.53;;;16.90;;
18188;SDS011;9219;50.396;8.546;2022-07-23T04:24:46;26.27;;;16.90;;
18188;SDS011;9219;50.396;8.546;2022-07-23T04:27:15;30.17;;;17.30;;
18188;SDS011;9219;50.396;8.546;2022-07-23T04:29:45;29.00;;;16.17;;
18188;SDS011;9219;50.396;8.546;2022-07-23T04:32:12;30.17;;;17.87;;
18188;SDS011;9219;50.396;8.546;2022-07-23T04:34:39;36.47;;;18.23;;
18188;SDS011;9219;50.396;8.546;2022-07-23T04:37:07;29.77;;;16.93;;
18188;SDS011;9219;50.396;8.546;2022-07-23T04:39:34;32.73;;;17.43;;
18188;SDS011;9219;50.396;8.546;2022-07-23T04:42:03;28.13;;;17.63;;
18188;SDS011;9219;50.396;8.546;2022-07-23T04:49:52;27.60;;;16.73;;
18188;SDS011;9219;50.396;8.546;2022-07-23T04:52:20;29.10;;;17.80;;
18188;SDS011;9219;50.396;8.546;2022-07-23T04:54:47;31.53;;;18.23;;
18188;SDS011;9219;50.396;8.546;2022-07-23T04:57:15;35.43;;;19.50;;
18188;SDS011;9219;50.396;8.546;2022-07-23T04:59:42;33.63;;;18.00;;
18188;SDS011;9219;50.396;8.546;2022-07-23T05:02:09;30.30;;;18.07;;
18188;SDS011;9219;50.396;8.546;2022-07-23T05:04:37;29.63;;;18.17;;
18188;SDS011;9219;50.396;8.546;2022-07-23T05:07:05;27.10;;;17.50;;
18188;SDS011;9219;50.396;8.546;2022-07-23T05:14:38;24.63;;;16.97;;
18188;SDS011;9219;50.396;8.546;2022-07-23T05:17:06;26.60;;;15.80;;
18188;SDS011;9219;50.396;8.546;2022-07-23T05:19:34;30.73;;;17.13;;
18188;SDS011;9219;50.396;8.546;2022-07-23T05:22:01;29.97;;;17.00;;
18188;SDS011;9219;50.396;8.546;2022-07-23T05:24:29;34.00;;;15.23;;
18188;SDS011;9219;50.396;8.546;2022-07-23T05:26:56;22.77;;;14.23;;
18188;SDS011;9219;50.396;8.546;2022-07-23T05:29:25;26.93;;;15.27;;
18188;SDS011;9219;50.396;8.546;2022-07-23T05:35:03;15.83;;;10.87;;
18188;SDS011;9219;50.396;8.546;2022-07-23T05:37:32;22.00;;;12.90;;
18188;SDS011;9219;50.396;8.546;2022-07-23T05:40:00;18.50;;;11.40;;
18188;SDS011;9219;50.396;8.546;2022-07-23T05:42:28;18.87;;;11.67;;
18188;SDS011;9219;50.396;8.546;2022-07-23T05:44:56;14.87;;;10.80;;
18188;SDS011;9219;50.396;8.546;2022-07-23T05:47:24;17.63;;;10.53;;
18188;SDS011;9219;50.396;8.546;2022-07-23T05:49:51;15.67;;;9.33;;
18188;SDS011;9219;50.396;8.546;2022-07-23T05:52:20;13.40;;;10.10;;
18188;SDS011;9219;50.396;8.546;2022-07-23T05:59:53;16.90;;;9.17;;
18188;SDS011;9219;50.396;8.546;2022-07-23T06:02:20;10.33;;;6.67;;
18188;SDS011;9219;50.396;8.546;2022-07-23T06:04:48;13.50;;;7.23;;
18188;SDS011;9219;50.396;8.546;2022-07-23T06:07:15;10.40;;;6.80;;
18188;SDS011;9219;50.396;8.546;2022-07-23T06:09:43;15.07;;;7.63;;
18188;SDS011;9219;50.396;8.546;2022-07-23T06:12:10;9.57;;;7.00;;
18188;SDS011;9219;50.396;8.546;2022-07-23T06:14:37;11.87;;;7.97;;
18188;SDS011;9219;50.396;8.546;2022-07-23T06:17:07;12.23;;;7.23;;
18188;SDS011;9219;50.396;8.546;2022-07-23T06:24:36;11.07;;;6.63;;
18188;SDS011;9219;50.396;8.546;2022-07-23T06:27:06;8.97;;;6.37;;
18188;SDS011;9219;50.396;8.546;2022-07-23T06:29:34;11.20;;;6.10;;
18188;SDS011;9219;50.396;8.546;2022-07-23T06:32:01;16.33;;;6.63;;
18188;SDS011;9219;50.396;8.546;2022-07-23T06:34:29;8.63;;;6.37;;
18188;SDS011;9219;50.396;8.546;2022-07-23T06:36:57;10.37;;;6.20;;
18188;SDS011;9219;50.396;8.546;2022-07-23T06:39:25;11.77;;;6.40;;
18188;SDS011;9219;50.396;8.546;2022-07-23T06:46:57;11.43;;;5.60;;
18188;SDS011;9219;50.396;8.546;2022-07-23T06:49:24;11.27;;;5.27;;
18188;SDS011;9219;50.396;8.546;2022-07-23T06:51:52;6.80;;;4.87;;
18188;SDS011;9219;50.396;8.546;2022-07-23T06:54:19;9.30;;;4.83;;
18188;SDS011;9219;50.396;8.546;2022-07-23T06:56:47;10.97;;;5.27;;
18188;SDS011;9219;50.396;8.546;2022-07-23T06:59:15;7.27;;;4.67;;
18188;SDS011;9219;50.396;8.546;2022-07-23T07:01:42;8.17;;;4.80;;
18188;SDS011;9219;50.396;8.546;2022-07-23T07:04:11;7.80;;;4.87;;
18188;SDS011;9219;50.396;8.546;2022-07-23T07:09:52;6.47;;;5.13;;
18188;SDS011;9219;50.396;8.546;2022-07-23T07:12:19;9.33;;;4.97;;
18188;SDS011;9219;50.396;8.546;2022-07-23T07:14:47;7.20;;;4.93;;
18188;SDS011;9219;50.396;8.546;2022-07-23T07:17:14;8.00;;;5.20;;
18188;SDS011;9219;50.396;8.546;2022-07-23T07:19:41;8.97;;;5.10;;
18188;SDS011;9219;50.396;8.546;2022-07-23T07:22:09;6.87;;;5.40;;
18188;SDS011;9219;50.396;8.546;2022-07-23T07:27:16;7.03;;;4.90;;
18188;SDS011;9219;50.396;8.546;2022-07-23T07:29:43;7.07;;;4.63;;
18188;SDS011;9219;50.396;8.546;2022-07-23T07:32:11;6.47;;;4.60;;
18188;SDS011;9219;50.396;8.546;2022-07-23T07:35:00;10.60;;;5.83;;
18188;SDS011;9219;50.396;8.546;2022-07-23T07:37:27;8.37;;;5.53;;
18188;SDS011;9219;50.396;8.546;2022-07-23T07:39:55;10.40;;;5.17;;
18188;SDS011;9219;50.396;8.546;2022-07-23T07:42:24;5.90;;;4.77;;
18188;SDS011;9219;50.396;8.546;2022-07-23T07:47:39;7.83;;;4.77;;
18188;SDS011;9219;50.396;8.546;2022-07-23T07:50:07;8.37;;;5.60;;
18188;SDS011;9219;50.396;8.546;2022-07-23T07:52:37;8.13;;;4.60;;
18188;SDS011;9219;50.396;8.546;2022-07-23T07:55:07;9.60;;;5.00;;
18188;SDS011;9219;50.396;8.546;2022-07-23T07:57:36;10.93;;;6.10;;
18188;SDS011;9219;50.396;8.546;2022-07-23T08:00:05;11.17;;;6.13;;
18188;SDS011;9219;50.396;8.546;2022-07-23T08:02:41;7.63;;;5.53;;
18188;SDS011;9219;50.396;8.546;2022-07-23T08:05:10;8.93;;;6.13;;
18188;SDS011;9219;50.396;8.546;2022-07-23T08:12:53;7.97;;;6.03;;
18188;SDS011;9219;50.396;8.546;2022-07-23T08:15:24;6.27;;;5.43;;
18188;SDS011;9219;50.396;8.546;2022-07-23T08:17:53;8.60;;;5.23;;
18188;SDS011;9219;50.396;8.546;2022-07-23T08:20:21;6.30;;;4.67;;
18188;SDS011;9219;50.396;8.546;2022-07-23T08:22:51;8.87;;;5.03;;
18188;SDS011;9219;50.396;8.546;2022-07-23T08:25:21;7.50;;;5.30;;
18188;SDS011;9219;50.396;8.546;2022-07-23T08:27:51;8.13;;;4.17;;
18188;SDS011;9219;50.396;8.546;2022-07-23T08:33:11;7.90;;;5.03;;
18188;SDS011;9219;50.396;8.546;2022-07-23T08:35:58;5.57;;;4.60;;
18188;SDS011;9219;50.396;8.546;2022-07-23T08:38:28;9.93;;;3.60;;
18188;SDS011;9219;50.396;8.546;2022-07-23T08:40:56;6.50;;;4.03;;
18188;SDS011;9219;50.396;8.546;2022-07-23T08:43:25;8.87;;;4.50;;
18188;SDS011;9219;50.396;8.546;2022-07-23T08:45:54;5.00;;;3.70;;
18188;SDS011;9219;50.396;8.546;2022-07-23T08:48:27;5.23;;;4.00;;
18188;SDS011;9219;50.396;8.546;2022-07-23T08:56:01;5.57;;;4.00;;
18188;SDS011;9219;50.396;8.546;2022-07-23T08:58:29;6.00;;;4.37;;
18188;SDS011;9219;50.396;8.546;2022-07-23T09:00:58;5.13;;;3.40;;
18188;SDS011;9219;50.396;8.546;2022-07-23T09:03:26;6.27;;;4.13;;
18188;SDS011;9219;50.396;8.546;2022-07-23T09:05:57;9.40;;;4.00;;
18188;SDS011;9219;50.396;8.546;2022-07-23T09:08:33;3.83;;;3.13;;
18188;SDS011;9219;50.396;8.546;2022-07-23T09:11:04;4.83;;;3.17;;
18188;SDS011;9219;50.396;8.546;2022-07-23T09:21:06;3.50;;;3.20;;
18188;SDS011;9219;50.396;8.546;2022-07-23T09:23:39;5.30;;;3.70;;
18188;SDS011;9219;50.396;8.546;2022-07-23T09:26:19;5.57;;;3.03;;
18188;SDS011;9219;50.396;8.546;2022-07-23T09:28:53;4.00;;;3.57;;
18188;SDS011;9219;50.396;8.546;2022-07-23T09:31:22;4.77;;;3.47;;
18188;SDS011;9219;50.396;8.546;2022-07-23T09:33:50;3.53;;;3.17;;
18188;SDS011;9219;50.396;8.546;2022-07-23T09:36:27;7.43;;;4.07;;
18188;SDS011;9219;50.396;8.546;2022-07-23T09:44:20;3.47;;;2.90;;
18188;SDS011;9219;50.396;8.546;2022-07-23T09:46:57;5.57;;;3.50;;
18188;SDS011;9219;50.396;8.546;2022-07-23T09:49:26;3.47;;;3.07;;
18188;SDS011;9219;50.396;8.546;2022-07-23T09:51:55;5.47;;;3.60;;
18188;SDS011;9219;50.396;8.546;2022-07-23T09:54:28;6.00;;;3.60;;
18188;SDS011;9219;50.396;8.546;2022-07-23T09:56:58;4.00;;;3.60;;
18188;SDS011;9219;50.396;8.546;2022-07-23T09:59:32;3.97;;;3.20;;
18188;SDS011;9219;50.396;8.546;2022-07-23T10:02:02;4.53;;;3.57;;
18188;SDS011;9219;50.396;8.546;2022-07-23T10:04:41;7.73;;;4.00;;
18188;SDS011;9219;50.396;8.546;2022-07-23T10:07:10;5.23;;;3.97;;
18188;SDS011;9219;50.396;8.546;2022-07-23T10:09:40;4.30;;;3.90;;
18188;SDS011;9219;50.396;8.546;2022-07-23T10:12:09;5.70;;;3.60;;
18188;SDS011;9219;50.396;8.546;2022-07-23T10:14:53;5.57;;;4.03;;
18188;SDS011;9219;50.396;8.546;2022-07-23T10:17:20;4.27;;;3.40;;
18188;SDS011;9219;50.396;8.546;2022-07-23T10:19:50;4.77;;;4.00;;
18188;SDS011;9219;50.396;8.546;2022-07-23T10:30:15;5.13;;;4.00;;
18188;SDS011;9219;50.396;8.546;2022-07-23T10:32:50;5.10;;;4.20;;
18188;SDS011;9219;50.396;8.546;2022-07-23T10:35:29;4.60;;;4.00;;
18188;SDS011;9219;50.396;8.546;2022-07-23T10:38:07;5.20;;;4.70;;
18188;SDS011;9219;50.396;8.546;2022-07-23T10:40:49;7.50;;;4.57;;
18188;SDS011;9219;50.396;8.546;2022-07-23T10:43:24;7.03;;;4.30;;
18188;SDS011;9219;50.396;8.546;2022-07-23T10:51:06;7.30;;;4.83;;
18188;SDS011;9219;50.396;8.546;2022-07-23T10:53:53;6.57;;;4.10;;
18188;SDS011;9219;50.396;8.546;2022-07-23T10:59:23;6.97;;;5.13;;
18188;SDS011;9219;50.396;8.546;2022-07-23T11:01:51;5.73;;;4.67;;
18188;SDS011;9219;50.396;8.546;2022-07-23T11:04:22;5.83;;;4.77;;
18188;SDS011;9219;50.396;8.546;2022-07-23T11:07:17;6.40;;;4.80;;
18188;SDS011;9219;50.396;8.546;2022-07-23T11:15:01;10.07;;;5.33;;
18188;SDS011;9219;50.396;8.546;2022-07-23T11:17:33;7.80;;;5.60;;
18188;SDS011;9219;50.396;8.546;2022-07-23T11:22:55;7.13;;;5.27;;
18188;SDS011;9219;50.396;8.546;2022-07-23T11:25:33;10.20;;;5.83;;
18188;SDS011;9219;50.396;8.546;2022-07-23T11:28:10;6.03;;;5.20;;
18188;SDS011;9219;50.396;8.546;2022-07-23T11:30:41;8.27;;;5.23;;
18188;SDS011;9219;50.396;8.546;2022-07-23T11:38:24;6.73;;;5.67;;
18188;SDS011;9219;50.396;8.546;2022-07-23T11:40:53;7.53;;;5.53;;
18188;SDS011;9219;50.396;8.546;2022-07-23T11:43:22;6.90;;;5.60;;
18188;SDS011;9219;50.396;8.546;2022-07-23T11:45:51;7.03;;;5.43;;
18188;SDS011;9219;50.396;8.546;2022-07-23T11:48:20;7.13;;;5.20;;
18188;SDS011;9219;50.396;8.546;2022-07-23T11:50:50;9.20;;;4.87;;
18188;SDS011;9219;50.396;8.546;2022-07-23T11:53:23;6.43;;;5.07;;
18188;SDS011;9219;50.396;8.546;2022-07-23T12:03:04;11.40;;;5.23;;
18188;SDS011;9219;50.396;8.546;2022-07-23T12:05:32;9.90;;;5.07;;
18188;SDS011;9219;50.396;8.546;2022-07-23T12:08:01;6.73;;;5.13;;
18188;SDS011;9219;50.396;8.546;2022-07-23T12:10:33;6.93;;;5.37;;
18188;SDS011;9219;50.396;8.546;2022-07-23T12:13:02;8.43;;;4.80;;
18188;SDS011;9219;50.396;8.546;2022-07-23T12:15:31;6.17;;;5.10;;
18188;SDS011;9219;50.396;8.546;2022-07-23T12:18:05;6.87;;;4.97;;
18188;SDS011;9219;50.396;8.546;2022-07-23T12:20:35;5.93;;;5.00;;
18188;SDS011;9219;50.396;8.546;2022-07-23T12:26:15;6.00;;;5.30;;
18188;SDS011;9219;50.396;8.546;2022-07-23T12:28:42;6.07;;;5.17;;
18188;SDS011;9219;50.396;8.546;2022-07-23T12:31:25;5.77;;;4.53;;
18188;SDS011;9219;50.396;8.546;2022-07-23T12:33:53;6.43;;;4.70;;
18188;SDS011;9219;50.396;8.546;2022-07-23T12:36:36;8.73;;;5.10;;
18188;SDS011;9219;50.396;8.546;2022-07-23T12:39:06;7.63;;;5.17;;
18188;SDS011;9219;50.396;8.546;2022-07-23T12:51:45;8.23;;;4.90;;
18188;SDS011;9219;50.396;8.546;2022-07-23T12:54:12;5.37;;;4.23;;
18188;SDS011;9219;50.396;8.546;2022-07-23T12:56:44;4.83;;;4.30;;
18188;SDS011;9219;50.396;8.546;2022-07-23T12:59:14;5.13;;;4.63;;
18188;SDS011;9219;50.396;8.546;2022-07-23T13:01:44;6.57;;;5.10;;
18188;SDS011;9219;50.396;8.546;2022-07-23T13:04:21;5.13;;;4.63;;
18188;SDS011;9219;50.396;8.546;2022-07-23T13:06:51;6.07;;;4.53;;
18188;SDS011;9219;50.396;8.546;2022-07-23T13:12:02;7.33;;;5.13;;
18188;SDS011;9219;50.396;8.546;2022-07-23T13:14:31;8.57;;;5.77;;
18188;SDS011;9219;50.396;8.546;2022-07-23T13:16:59;5.13;;;4.67;;
18188;SDS011;9219;50.396;8.546;2022-07-23T13:19:26;5.70;;;5.10;;
18188;SDS011;9219;50.396;8.546;2022-07-23T13:21:54;4.80;;;4.33;;
18188;SDS011;9219;50.396;8.546;2022-07-23T13:24:21;6.70;;;4.87;;
18188;SDS011;9219;50.396;8.546;2022-07-23T13:26:49;7.50;;;4.90;;
18188;SDS011;9219;50.396;8.546;2022-07-23T13:32:07;5.63;;;5.03;;
18188;SDS011;9219;50.396;8.546;2022-07-23T13:34:38;6.97;;;4.00;;
18188;SDS011;9219;50.396;8.546;2022-07-23T13:37:07;7.37;;;4.90;;
18188;SDS011;9219;50.396;8.546;2022-07-23T13:39:35;6.90;;;4.70;;
18188;SDS011;9219;50.396;8.546;2022-07-23T13:42:04;5.90;;;4.30;;
18188;SDS011;9219;50.396;8.546;2022-07-23T13:44:33;4.67;;;3.90;;
18188;SDS011;9219;50.396;8.546;2022-07-23T13:47:02;4.87;;;3.87;;
18188;SDS011;9219;50.396;8.546;2022-07-23T13:52:34;6.13;;;4.47;;
18188;SDS011;9219;50.396;8.546;2022-07-23T13:55:03;5.57;;;4.10;;
18188;SDS011;9219;50.396;8.546;2022-07-23T13:57:32;4.27;;;3.87;;
18188;SDS011;9219;50.396;8.546;2022-07-23T14:00:00;5.23;;;3.33;;
18188;SDS011;9219;50.396;8.546;2022-07-23T14:02:29;6.47;;;4.27;;
18188;SDS011;9219;50.396;8.546;2022-07-23T14:04:57;8.20;;;3.87;;
18188;SDS011;9219;50.396;8.546;2022-07-23T14:07:26;7.00;;;4.17;;
18188;SDS011;9219;50.396;8.546;2022-07-23T14:12:37;4.30;;;3.70;;
18188;SDS011;9219;50.396;8.546;2022-07-23T14:15:05;4.13;;;3.73;;
18188;SDS011;9219;50.396;8.546;2022-07-23T14:17:39;10.10;;;4.20;;
18188;SDS011;9219;50.396;8.546;2022-07-23T14:20:08;6.40;;;4.13;;
18188;SDS011;9219;50.396;8.546;2022-07-23T14:22:37;4.30;;;3.40;;
18188;SDS011;9219;50.396;8.546;2022-07-23T14:25:07;3.93;;;3.43;;
18188;SDS011;9219;50.396;8.546;2022-07-23T14:27:38;5.00;;;3.43;;
18188;SDS011;9219;50.396;8.546;2022-07-23T14:32:51;5.77;;;3.63;;
18188;SDS011;9219;50.396;8.546;2022-07-23T14:35:21;5.30;;;3.97;;
18188;SDS011;9219;50.396;8.546;2022-07-23T14:37:49;4.00;;;3.40;;
18188;SDS011;9219;50.396;8.546;2022-07-23T14:40:18;6.10;;;3.57;;
18188;SDS011;9219;50.396;8.546;2022-07-23T14:42:48;4.70;;;3.53;;
18188;SDS011;9219;50.396;8.546;2022-07-23T14:45:16;3.63;;;3.33;;
18188;SDS011;9219;50.396;8.546;2022-07-23T14:47:45;4.33;;;3.93;;
18188;SDS011;9219;50.396;8.546;2022-07-23T14:52:54;3.47;;;2.87;;
18188;SDS011;9219;50.396;8.546;2022-07-23T14:55:21;4.00;;;3.70;;
18188;SDS011;9219;50.396;8.546;2022-07-23T14:57:50;4.03;;;3.30;;
18188;SDS011;9219;50.396;8.546;2022-07-23T15:00:17;4.57;;;3.43;;
18188;SDS011;9219;50.396;8.546;2022-07-23T15:02:49;4.00;;;2.87;;
18188;SDS011;9219;50.396;8.546;2022-07-23T15:05:20;3.43;;;3.13;;
18188;SDS011;9219;50.396;8.546;2022-07-23T15:07:48;3.83;;;3.43;;
18188;SDS011;9219;50.396;8.546;2022-07-23T15:10:18;5.30;;;3.30;;
18188;SDS011;9219;50.396;8.546;2022-07-23T15:18:05;4.80;;;2.60;;
18188;SDS011;9219;50.396;8.546;2022-07-23T15:20:33;6.23;;;3.80;;
18188;SDS011;9219;50.396;8.546;2022-07-23T15:23:06;7.40;;;3.33;;
18188;SDS011;9219;50.396;8.546;2022-07-23T15:25:37;3.60;;;3.27;;
18188;SDS011;9219;50.396;8.546;2022-07-23T15:28:05;4.73;;;3.10;;
18188;SDS011;9219;50.396;8.546;2022-07-23T15:30:35;4.87;;;3.37;;
18188;SDS011;9219;50.396;8.546;2022-07-23T15:33:05;4.50;;;3.10;;
18188;SDS011;9219;50.396;8.546;2022-07-23T15:35:45;4.73;;;3.30;;
18188;SDS011;9219;50.396;8.546;2022-07-23T15:38:25;4.63;;;3.17;;
18188;SDS011;9219;50.396;8.546;2022-07-23T15:40:56;3.53;;;3.23;;
18188;SDS011;9219;50.396;8.546;2022-07-23T15:43:25;4.20;;;3.57;;
18188;SDS011;9219;50.396;8.546;2022-07-23T15:45:54;5.20;;;3.57;;
18188;SDS011;9219;50.396;8.546;2022-07-23T15:48:23;5.83;;;3.40;;
18188;SDS011;9219;50.396;8.546;2022-07-23T15:50:51;5.93;;;3.50;;
18188;SDS011;9219;50.396;8.546;2022-07-23T15:53:20;5.77;;;3.50;;
18188;SDS011;9219;50.396;8.546;2022-07-23T16:01:07;5.73;;;3.60;;
18188;SDS011;9219;50.396;8.546;2022-07-23T16:03:35;5.07;;;3.90;;
18188;SDS011;9219;50.396;8.546;2022-07-23T16:06:13;3.87;;;3.27;;
18188;SDS011;9219;50.396;8.546;2022-07-23T16:08:44;6.43;;;3.33;;
18188;SDS011;9219;50.396;8.546;2022-07-23T16:11:18;4.23;;;2.83;;
18188;SDS011;9219;50.396;8.546;2022-07-23T16:13:49;5.13;;;3.27;;
18188;SDS011;9219;50.396;8.546;2022-07-23T16:19:35;5.57;;;3.03;;
18188;SDS011;9219;50.396;8.546;2022-07-23T16:27:13;4.70;;;3.47;;
18188;SDS011;9219;50.396;8.546;2022-07-23T16:29:43;5.77;;;3.43;;
18188;SDS011;9219;50.396;8.546;2022-07-23T16:32:18;3.50;;;3.20;;
18188;SDS011;9219;50.396;8.546;2022-07-23T16:34:46;3.97;;;3.33;;
18188;SDS011;9219;50.396;8.546;2022-07-23T16:37:17;3.77;;;2.97;;
18188;SDS011;9219;50.396;8.546;2022-07-23T16:39:46;5.10;;;3.23;;
18188;SDS011;9219;50.396;8.546;2022-07-23T16:42:15;6.57;;;3.40;;
18188;SDS011;9219;50.396;8.546;2022-07-23T16:44:47;5.37;;;3.50;;
18188;SDS011;9219;50.396;8.546;2022-07-23T16:51:05;4.30;;;3.53;;
18188;SDS011;9219;50.396;8.546;2022-07-23T16:53:34;4.83;;;3.60;;
18188;SDS011;9219;50.396;8.546;2022-07-23T16:56:03;10.53;;;3.40;;
18188;SDS011;9219;50.396;8.546;2022-07-23T16:58:33;4.33;;;3.33;;
18188;SDS011;9219;50.396;8.546;2022-07-23T17:01:00;6.67;;;3.10;;
18188;SDS011;9219;50.396;8.546;2022-07-23T17:03:28;4.37;;;3.33;;
18188;SDS011;9219;50.396;8.546;2022-07-23T17:05:57;3.63;;;2.97;;
18188;SDS011;9219;50.396;8.546;2022-07-23T17:08:27;4.40;;;3.23;;
18188;SDS011;9219;50.396;8.546;2022-07-23T17:16:00;5.10;;;3.43;;
18188;SDS011;9219;50.396;8.546;2022-07-23T17:18:28;4.00;;;3.03;;
18188;SDS011;9219;50.396;8.546;2022-07-23T17:20:56;4.27;;;3.63;;
18188;SDS011;9219;50.396;8.546;2022-07-23T17:23:31;7.00;;;3.77;;
18188;SDS011;9219;50.396;8.546;2022-07-23T17:25:58;4.77;;;3.43;;
18188;SDS011;9219;50.396;8.546;2022-07-23T17:28:26;4.93;;;3.30;;
18188;SDS011;9219;50.396;8.546;2022-07-23T17:30:56;4.07;;;3.30;;
18188;SDS011;9219;50.396;8.546;2022-07-23T17:38:29;3.87;;;3.47;;
18188;SDS011;9219;50.396;8.546;2022-07-23T17:40:57;3.13;;;2.83;;
18188;SDS011;9219;50.396;8.546;2022-07-23T17:43:25;3.63;;;3.13;;
18188;SDS011;9219;50.396;8.546;2022-07-23T17:45:53;4.07;;;3.60;;
18188;SDS011;9219;50.396;8.546;2022-07-23T17:48:20;3.80;;;3.20;;
18188;SDS011;9219;50.396;8.546;2022-07-23T17:50:48;3.40;;;3.10;;
18188;SDS011;9219;50.396;8.546;2022-07-23T17:53:20;3.67;;;3.27;;
18188;SDS011;9219;50.396;8.546;2022-07-23T17:55:51;3.57;;;3.20;;
18188;SDS011;9219;50.396;8.546;2022-07-23T18:03:38;6.03;;;4.30;;
18188;SDS011;9219;50.396;8.546;2022-07-23T18:06:07;4.47;;;3.47;;
18188;SDS011;9219;50.396;8.546;2022-07-23T18:08:35;4.70;;;3.17;;
18188;SDS011;9219;50.396;8.546;2022-07-23T18:11:03;3.73;;;3.43;;
18188;SDS011;9219;50.396;8.546;2022-07-23T18:13:32;4.57;;;3.20;;
18188;SDS011;9219;50.396;8.546;2022-07-23T18:15:59;5.67;;;3.90;;
18188;SDS011;9219;50.396;8.546;2022-07-23T18:18:27;4.70;;;3.67;;
18188;SDS011;9219;50.396;8.546;2022-07-23T18:25:38;4.57;;;3.30;;
18188;SDS011;9219;50.396;8.546;2022-07-23T18:28:12;5.03;;;3.03;;
18188;SDS011;9219;50.396;8.546;2022-07-23T18:30:46;3.80;;;3.40;;
18188;SDS011;9219;50.396;8.546;2022-07-23T18:33:26;4.30;;;3.90;;
18188;SDS011;9219;50.396;8.546;2022-07-23T18:35:56;4.33;;;3.20;;
18188;SDS011;9219;50.396;8.546;2022-07-23T18:38:27;5.17;;;3.77;;
18188;SDS011;9219;50.396;8.546;2022-07-23T18:40:57;6.07;;;3.97;;
18188;SDS011;9219;50.396;8.546;2022-07-23T18:51:21;5.13;;;3.37;;
18188;SDS011;9219;50.396;8.546;2022-07-23T18:53:53;7.07;;;3.70;;
18188;SDS011;9219;50.396;8.546;2022-07-23T18:56:23;6.43;;;4.07;;